createdAt,value
2023-02-28T00:04:10.193Z,101902.06
2023-02-28T00:09:14.257Z,101911.91
2023-02-28T00:14:17.016Z,101902.94
2023-02-28T00:19:19.764Z,101907.13
2023-02-28T00:24:23.876Z,101896.59
2023-02-28T00:29:26.602Z,101904.63
2023-02-28T00:34:29.621Z,101913.63
2023-02-28T00:39:36.462Z,101911.97
2023-02-28T00:44:39.228Z,101915.44
2023-02-28T00:49:42.025Z,101915.50
2023-02-28T00:54:47.252Z,101917.22
2023-02-28T00:59:51.247Z,101913.72
2023-02-28T01:04:54.659Z,101923.38
2023-02-28T01:09:59.042Z,101923.28
2023-02-28T01:15:01.825Z,101922.50
2023-02-28T01:20:05.274Z,101919.13
2023-02-28T01:25:10.536Z,101919.28
2023-02-28T01:30:14.110Z,101914.16
2023-02-28T01:35:17.052Z,101914.16
2023-02-28T01:40:21.996Z,101921.19
2023-02-28T01:45:26.976Z,101917.78
2023-02-28T01:50:33.314Z,101916.09
2023-02-28T01:55:38.238Z,101917.88
2023-02-28T02:00:43.496Z,101914.31
2023-02-28T02:05:48.621Z,101916.06
2023-02-28T02:10:56.048Z,101917.88
2023-02-28T02:16:05.970Z,101914.31
2023-02-28T02:21:31.193Z,101915.06
2023-02-28T02:26:53.861Z,101912.38
2023-02-28T02:32:19.223Z,101908.94
2023-02-28T02:37:32.167Z,101903.72
2023-02-28T02:42:43.611Z,101898.59
2023-02-28T02:47:47.664Z,101911.91
2023-02-28T02:52:56.720Z,101913.78
2023-02-28T02:58:04.312Z,101915.69
2023-02-28T03:03:09.162Z,101921.03
2023-02-28T03:08:14.058Z,101923.69
2023-02-28T03:13:37.918Z,101928.16
2023-02-28T03:18:51.277Z,101919.38
2023-02-28T03:24:02.201Z,101915.84
2023-02-28T03:29:13.737Z,101922.81
2023-02-28T03:34:22.235Z,101913.16
2023-02-28T03:39:30.732Z,101914.94
2023-02-28T03:44:38.786Z,101912.22
2023-02-28T03:49:46.935Z,101911.38
2023-02-28T03:54:56.426Z,101904.38
2023-02-28T04:00:05.204Z,101912.38
2023-02-28T04:05:15.278Z,101916.00
2023-02-28T04:10:19.966Z,101918.63
2023-02-28T04:15:23.837Z,101914.25
2023-02-28T04:20:26.641Z,101909.88
2023-02-28T04:25:30.749Z,101909.03
2023-02-28T04:30:34.112Z,101912.69
2023-02-28T04:35:36.903Z,101917.97
2023-02-28T04:40:41.059Z,101907.47
2023-02-28T04:45:43.875Z,101921.53
2023-02-28T04:50:46.646Z,101917.16
2023-02-28T04:55:50.857Z,101913.66
2023-02-28T05:00:54.605Z,101918.06
2023-02-28T05:05:57.470Z,101918.03
2023-02-28T05:11:02.608Z,101918.88
2023-02-28T05:16:05.789Z,101925.00
2023-02-28T05:21:25.323Z,101931.16
2023-02-28T05:26:29.991Z,101931.19
2023-02-28T05:31:33.490Z,101935.53
2023-02-28T05:36:39.334Z,101931.13
2023-02-28T05:41:45.175Z,101938.16
2023-02-28T05:46:47.932Z,101936.44
2023-02-28T05:51:50.692Z,101937.31
2023-02-28T05:56:54.830Z,101938.19
2023-02-28T06:01:57.668Z,101942.59
2023-02-28T06:07:00.633Z,101940.84
2023-02-28T06:12:08.004Z,101939.09
2023-02-28T06:17:11.595Z,101934.72
2023-02-28T06:22:14.377Z,101932.09
2023-02-28T06:27:18.480Z,101937.34
2023-02-28T06:32:21.312Z,101942.63
2023-02-28T06:37:27.054Z,101948.75
2023-02-28T06:42:31.861Z,101948.63
2023-02-28T06:47:34.608Z,101954.56
2023-02-28T06:52:38.328Z,101961.31
2023-02-28T06:57:42.560Z,101970.81
2023-02-28T07:02:45.583Z,101973.16
2023-02-28T07:07:48.337Z,101979.88
2023-02-28T07:12:52.432Z,101987.59
2023-02-28T07:17:55.297Z,101992.44
2023-02-28T07:22:58.103Z,101990.25
2023-02-28T07:28:02.195Z,101991.41
2023-02-28T07:33:05.333Z,102003.44
2023-02-28T07:38:09.428Z,102000.41
2023-02-28T07:43:13.580Z,102005.69
2023-02-28T07:48:17.141Z,102006.59
2023-02-28T07:53:19.946Z,102006.69
2023-02-28T07:58:24.368Z,101992.81
2023-02-28T08:03:27.135Z,101991.81
2023-02-28T08:08:32.307Z,101994.97
2023-02-28T08:13:36.454Z,101999.16
2023-02-28T08:18:39.225Z,101997.25
2023-02-28T08:23:42.017Z,101986.94
2023-02-28T08:28:46.512Z,101986.78
2023-02-28T08:33:51.941Z,101993.09
2023-02-28T08:38:54.808Z,101987.44
2023-02-28T08:43:58.906Z,101995.06
2023-02-28T08:49:02.807Z,101982.91
2023-02-28T08:54:05.817Z,101995.84
2023-02-28T08:59:11.297Z,101999.50
2023-02-28T09:04:17.090Z,101993.09
2023-02-28T09:09:22.624Z,101995.63
2023-02-28T09:14:26.779Z,101987.94
2023-02-28T09:19:29.530Z,101990.56
2023-02-28T09:24:32.860Z,101974.44
2023-02-28T09:29:37.150Z,101979.22
2023-02-28T09:34:40.016Z,101981.91
2023-02-28T09:39:43.002Z,101989.38
2023-02-28T09:44:49.531Z,101984.53
2023-02-28T09:49:52.691Z,101981.88
2023-02-28T09:54:55.842Z,101980.44
2023-02-28T10:00:19.716Z,101969.22
2023-02-28T10:05:27.417Z,101979.09
2023-02-28T10:10:39.361Z,101987.69
2023-02-28T10:15:44.366Z,101974.78
2023-02-28T10:20:48.303Z,101980.06
2023-02-28T10:25:58.472Z,101972.13
2023-02-28T10:31:03.087Z,101964.50
2023-02-28T10:36:07.717Z,101971.00
2023-02-28T10:41:12.171Z,101966.78
2023-02-28T10:46:26.607Z,101956.03
2023-02-28T10:51:37.301Z,101951.94
2023-02-28T10:56:40.046Z,101956.56
2023-02-28T11:01:46.396Z,101955.28
2023-02-28T11:06:50.467Z,101950.44
2023-02-28T11:11:53.927Z,101939.94
2023-02-28T11:17:04.897Z,101934.69
2023-02-28T11:22:09.281Z,101942.16
2023-02-28T11:27:27.574Z,101943.78
2023-02-28T11:32:33.410Z,101931.66
2023-02-28T11:37:36.447Z,101924.13
2023-02-28T11:42:57.130Z,101922.13
2023-02-28T11:48:10.905Z,101915.41
2023-02-28T11:53:23.791Z,101912.22
2023-02-28T11:58:37.191Z,101914.81
2023-02-28T12:03:54.439Z,101904.75
2023-02-28T12:09:14.135Z,101900.38
2023-02-28T12:14:45.083Z,101885.75
2023-02-28T12:19:56.586Z,101894.25
2023-02-28T12:25:34.916Z,101881.97
2023-02-28T12:30:43.237Z,101875.38
2023-02-28T12:35:52.357Z,101868.31
2023-02-28T12:40:59.399Z,101877.72
2023-02-28T12:46:10.127Z,101869.19
2023-02-28T12:51:15.675Z,101856.75
2023-02-28T12:56:29.373Z,101862.88
2023-02-28T13:02:01.694Z,101846.63
2023-02-28T13:07:25.925Z,101844.03
2023-02-28T13:12:29.572Z,101831.00
2023-02-28T13:17:32.703Z,101829.69
2023-02-28T13:22:42.913Z,101826.78
2023-02-28T13:27:47.035Z,101841.81
2023-02-28T13:33:28.435Z,101823.31
2023-02-28T13:38:38.291Z,101828.28
2023-02-28T13:44:03.145Z,101826.19
2023-02-28T13:49:21.739Z,101822.88
2023-02-28T13:54:42.382Z,101817.28
2023-02-28T13:59:53.457Z,101820.84
2023-02-28T14:05:03.035Z,101818.56
2023-02-28T14:10:10.100Z,101807.91
2023-02-28T14:15:43.814Z,101806.84
2023-02-28T14:20:48.961Z,101804.44
2023-02-28T14:26:06.054Z,101798.09
2023-02-28T14:31:13.608Z,101789.06
2023-02-28T14:36:22.177Z,101789.47
2023-02-28T14:41:32.389Z,101784.25
2023-02-28T14:46:39.717Z,101785.41
2023-02-28T14:51:42.546Z,101791.47
2023-02-28T14:56:52.120Z,101785.72
2023-02-28T15:02:09.452Z,101801.75
2023-02-28T15:07:13.329Z,101794.59
2023-02-28T15:12:17.571Z,101798.50
2023-02-28T15:17:26.657Z,101805.22
2023-02-28T15:22:33.408Z,101799.06
2023-02-28T15:27:44.275Z,101800.47
2023-02-28T15:32:47.357Z,101806.53
2023-02-28T15:37:55.193Z,101799.41
2023-02-28T15:43:19.343Z,101801.41
2023-02-28T15:48:25.276Z,101816.72
2023-02-28T15:53:33.792Z,101806.75
2023-02-28T15:58:38.715Z,101803.22
2023-02-28T16:03:46.049Z,101815.88
2023-02-28T16:08:49.836Z,101811.19
2023-02-28T16:13:54.952Z,101809.25
2023-02-28T16:18:57.748Z,101809.25
2023-02-28T16:24:00.580Z,101796.69
2023-02-28T16:29:05.481Z,101809.75
2023-02-28T16:34:08.301Z,101814.53
2023-02-28T16:39:11.038Z,101818.06
2023-02-28T16:44:23.039Z,101829.03
2023-02-28T16:49:25.816Z,101825.66
2023-02-28T16:54:28.662Z,101822.81
2023-02-28T16:59:33.333Z,101825.13
2023-02-28T17:04:36.072Z,101830.41
2023-02-28T17:09:42.959Z,101837.03
2023-02-28T17:14:47.686Z,101829.50
2023-02-28T17:19:50.421Z,101839.84
2023-02-28T17:24:53.364Z,101838.47
2023-02-28T17:29:57.480Z,101840.66
2023-02-28T17:35:00.267Z,101844.31
2023-02-28T17:40:03.539Z,101848.22
2023-02-28T17:45:08.875Z,101849.34
2023-02-28T17:50:16.736Z,101853.84
2023-02-28T17:55:20.125Z,101862.88
2023-02-28T18:00:25.907Z,101873.69
2023-02-28T18:05:28.788Z,101879.13
2023-02-28T18:10:34.260Z,101879.28
2023-02-28T18:15:39.844Z,101877.97
2023-02-28T18:20:43.314Z,101884.44
2023-02-28T18:25:47.112Z,101879.25
2023-02-28T18:30:51.342Z,101883.06
2023-02-28T18:35:57.721Z,101879.88
2023-02-28T18:41:02.130Z,101875.69
2023-02-28T18:46:08.039Z,101875.78
2023-02-28T18:51:12.668Z,101875.97
2023-02-28T18:56:17.106Z,101874.34
2023-02-28T19:01:22.800Z,101882.38
2023-02-28T19:06:25.649Z,101878.22
2023-02-28T19:11:29.230Z,101868.78
2023-02-28T19:16:33.685Z,101869.72
2023-02-28T19:21:36.997Z,101871.63
2023-02-28T19:26:39.770Z,101876.94
2023-02-28T19:31:43.924Z,101878.78
2023-02-28T19:36:46.744Z,101878.75
2023-02-28T19:41:49.485Z,101885.09
2023-02-28T19:46:54.507Z,101881.84
2023-02-28T19:51:57.307Z,101885.56
2023-02-28T19:57:00.117Z,101883.03
2023-02-28T20:02:04.382Z,101876.16
2023-02-28T20:07:07.228Z,101874.56
2023-02-28T20:12:23.231Z,101874.44
2023-02-28T20:17:30.377Z,101870.94
2023-02-28T20:22:33.384Z,101877.25
2023-02-28T20:27:36.266Z,101881.69
2023-02-28T20:32:40.524Z,101888.91
2023-02-28T20:37:43.364Z,101896.25
2023-02-28T20:42:46.225Z,101897.38
2023-02-28T20:47:51.635Z,101898.72
2023-02-28T20:52:54.546Z,101898.97
2023-02-28T20:57:58.369Z,101912.88
2023-02-28T21:03:02.776Z,101903.97
2023-02-28T21:08:05.682Z,101913.63
2023-02-28T21:13:08.578Z,101908.28
2023-02-28T21:18:12.946Z,101911.78
2023-02-28T21:23:15.735Z,101904.00
2023-02-28T21:28:18.506Z,101905.81
2023-02-28T21:33:22.659Z,101914.59
2023-02-28T21:38:25.437Z,101905.81
2023-02-28T21:43:28.171Z,101904.84
2023-02-28T21:48:32.456Z,101907.66
2023-02-28T21:53:37.893Z,101906.03
2023-02-28T21:58:40.746Z,101906.31
2023-02-28T22:03:45.984Z,101914.41
2023-02-28T22:08:51.059Z,101914.47
2023-02-28T22:13:56.270Z,101902.91
2023-02-28T22:19:03.265Z,101909.06
2023-02-28T22:24:06.726Z,101906.38
2023-02-28T22:29:10.560Z,101902.75
2023-02-28T22:34:15.300Z,101902.81
2023-02-28T22:39:18.122Z,101906.38
2023-02-28T22:44:22.391Z,101921.63
2023-02-28T22:49:26.562Z,101917.47
2023-02-28T22:54:29.330Z,101914.06
2023-02-28T22:59:32.074Z,101920.19
2023-02-28T23:04:36.310Z,101915.72
2023-02-28T23:09:39.123Z,101908.66
2023-02-28T23:14:42.576Z,101911.31
2023-02-28T23:19:46.816Z,101916.56
2023-02-28T23:24:49.584Z,101900.59
2023-02-28T23:29:52.328Z,101899.78
2023-02-28T23:34:56.564Z,101903.34
2023-02-28T23:39:59.522Z,101906.88
2023-02-28T23:45:02.354Z,101901.47
2023-02-28T23:50:07.293Z,101912.75
2023-02-28T23:55:11.216Z,101903.25
